sensor_id;sensor_type;location;lat;lon;timestamp;temperature;humidity
42743;DHT22;28397;44.552;-0.848;2022-08-14T00:00:14;22.40;99.90
42743;DHT22;28397;44.552;-0.848;2022-08-14T00:02:41;22.40;99.90
42743;DHT22;28397;44.552;-0.848;2022-08-14T00:05:09;22.40;99.90
42743;DHT22;28397;44.552;-0.848;2022-08-14T00:07:36;22.40;99.90
42743;DHT22;28397;44.552;-0.848;2022-08-14T00:10:03;22.40;99.90
42743;DHT22;28397;44.552;-0.848;2022-08-14T00:12:32;22.40;99.90
42743;DHT22;28397;44.552;-0.848;2022-08-14T00:14:58;22.40;99.90
42743;DHT22;28397;44.552;-0.848;2022-08-14T00:17:24;22.30;99.90
42743;DHT22;28397;44.552;-0.848;2022-08-14T00:19:51;22.20;99.90
42743;DHT22;28397;44.552;-0.848;2022-08-14T00:22:16;22.30;99.90
42743;DHT22;28397;44.552;-0.848;2022-08-14T00:24:44;22.30;99.90
42743;DHT22;28397;44.552;-0.848;2022-08-14T00:27:10;22.10;99.90
42743;DHT22;28397;44.552;-0.848;2022-08-14T00:29:36;22.20;99.90
42743;DHT22;28397;44.552;-0.848;2022-08-14T00:32:02;22.10;99.90
42743;DHT22;28397;44.552;-0.848;2022-08-14T00:34:27;22.10;99.90
42743;DHT22;28397;44.552;-0.848;2022-08-14T00:36:53;22.00;99.90
42743;DHT22;28397;44.552;-0.848;2022-08-14T00:39:19;22.10;99.90
42743;DHT22;28397;44.552;-0.848;2022-08-14T00:41:48;22.10;99.90
42743;DHT22;28397;44.552;-0.848;2022-08-14T00:44:14;22.10;99.90
42743;DHT22;28397;44.552;-0.848;2022-08-14T00:46:40;22.10;99.90
42743;DHT22;28397;44.552;-0.848;2022-08-14T00:49:07;22.20;99.90
42743;DHT22;28397;44.552;-0.848;2022-08-14T00:51:33;22.20;99.90
42743;DHT22;28397;44.552;-0.848;2022-08-14T00:53:59;22.20;99.90
42743;DHT22;28397;44.552;-0.848;2022-08-14T00:56:27;22.20;99.90
42743;DHT22;28397;44.552;-0.848;2022-08-14T00:58:53;22.10;99.90
42743;DHT22;28397;44.552;-0.848;2022-08-14T01:01:20;22.00;99.90
42743;DHT22;28397;44.552;-0.848;2022-08-14T01:03:46;22.00;99.90
42743;DHT22;28397;44.552;-0.848;2022-08-14T01:06:13;22.00;99.90
42743;DHT22;28397;44.552;-0.848;2022-08-14T01:08:41;22.00;99.90
42743;DHT22;28397;44.552;-0.848;2022-08-14T01:11:10;21.90;99.90
42743;DHT22;28397;44.552;-0.848;2022-08-14T01:13:41;21.90;99.90
42743;DHT22;28397;44.552;-0.848;2022-08-14T01:16:12;21.90;99.90
42743;DHT22;28397;44.552;-0.848;2022-08-14T01:18:39;21.90;99.90
42743;DHT22;28397;44.552;-0.848;2022-08-14T01:21:37;22.00;99.90
42743;DHT22;28397;44.552;-0.848;2022-08-14T01:24:04;21.90;99.90
42743;DHT22;28397;44.552;-0.848;2022-08-14T01:26:32;21.80;99.90
42743;DHT22;28397;44.552;-0.848;2022-08-14T01:28:58;21.80;99.90
42743;DHT22;28397;44.552;-0.848;2022-08-14T01:31:28;21.70;99.90
42743;DHT22;28397;44.552;-0.848;2022-08-14T01:33:55;21.70;99.90
42743;DHT22;28397;44.552;-0.848;2022-08-14T01:36:23;21.80;99.90
42743;DHT22;28397;44.552;-0.848;2022-08-14T01:38:50;21.80;99.90
42743;DHT22;28397;44.552;-0.848;2022-08-14T01:41:19;21.80;99.90
42743;DHT22;28397;44.552;-0.848;2022-08-14T01:43:57;21.80;99.90
42743;DHT22;28397;44.552;-0.848;2022-08-14T01:46:27;21.80;99.90
42743;DHT22;28397;44.552;-0.848;2022-08-14T01:48:54;21.80;99.90
42743;DHT22;28397;44.552;-0.848;2022-08-14T01:51:23;21.80;99.90
42743;DHT22;28397;44.552;-0.848;2022-08-14T01:53:51;21.90;99.90
42743;DHT22;28397;44.552;-0.848;2022-08-14T01:56:18;21.90;99.90
42743;DHT22;28397;44.552;-0.848;2022-08-14T01:58:46;21.80;99.90
42743;DHT22;28397;44.552;-0.848;2022-08-14T02:01:18;21.90;99.90
42743;DHT22;28397;44.552;-0.848;2022-08-14T02:03:45;21.80;99.90
42743;DHT22;28397;44.552;-0.848;2022-08-14T02:06:11;21.80;99.90
42743;DHT22;28397;44.552;-0.848;2022-08-14T02:08:41;21.80;99.90
42743;DHT22;28397;44.552;-0.848;2022-08-14T02:11:08;21.80;99.90
42743;DHT22;28397;44.552;-0.848;2022-08-14T02:13:53;21.80;99.90
42743;DHT22;28397;44.552;-0.848;2022-08-14T02:16:22;21.80;99.90
42743;DHT22;28397;44.552;-0.848;2022-08-14T02:18:55;21.80;99.90
42743;DHT22;28397;44.552;-0.848;2022-08-14T02:21:22;21.90;99.90
42743;DHT22;28397;44.552;-0.848;2022-08-14T02:23:50;21.80;99.90
42743;DHT22;28397;44.552;-0.848;2022-08-14T02:26:25;21.80;99.90
42743;DHT22;28397;44.552;-0.848;2022-08-14T02:28:54;21.80;99.90
42743;DHT22;28397;44.552;-0.848;2022-08-14T02:31:20;21.80;99.90
42743;DHT22;28397;44.552;-0.848;2022-08-14T02:33:46;21.80;99.90
42743;DHT22;28397;44.552;-0.848;2022-08-14T02:36:13;21.80;99.90
42743;DHT22;28397;44.552;-0.848;2022-08-14T02:38:40;21.80;99.90
42743;DHT22;28397;44.552;-0.848;2022-08-14T02:41:10;21.80;99.90
42743;DHT22;28397;44.552;-0.848;2022-08-14T02:43:38;21.80;99.90
42743;DHT22;28397;44.552;-0.848;2022-08-14T02:46:06;21.70;99.90
42743;DHT22;28397;44.552;-0.848;2022-08-14T02:48:34;21.80;99.90
42743;DHT22;28397;44.552;-0.848;2022-08-14T02:51:05;21.70;99.90
42743;DHT22;28397;44.552;-0.848;2022-08-14T02:53:33;21.70;99.90
42743;DHT22;28397;44.552;-0.848;2022-08-14T02:56:00;21.70;99.90
42743;DHT22;28397;44.552;-0.848;2022-08-14T02:58:27;21.70;99.90
42743;DHT22;28397;44.552;-0.848;2022-08-14T03:00:54;21.70;99.90
42743;DHT22;28397;44.552;-0.848;2022-08-14T03:03:20;21.70;99.90
42743;DHT22;28397;44.552;-0.848;2022-08-14T03:05:50;21.70;99.90
42743;DHT22;28397;44.552;-0.848;2022-08-14T03:08:16;21.70;99.90
42743;DHT22;28397;44.552;-0.848;2022-08-14T03:10:43;21.60;99.90
42743;DHT22;28397;44.552;-0.848;2022-08-14T03:13:09;21.60;99.90
42743;DHT22;28397;44.552;-0.848;2022-08-14T03:15:35;21.60;99.90
42743;DHT22;28397;44.552;-0.848;2022-08-14T03:18:18;21.60;99.90
42743;DHT22;28397;44.552;-0.848;2022-08-14T03:20:46;21.60;99.90
42743;DHT22;28397;44.552;-0.848;2022-08-14T03:23:12;21.60;99.90
42743;DHT22;28397;44.552;-0.848;2022-08-14T03:25:39;21.60;99.90
42743;DHT22;28397;44.552;-0.848;2022-08-14T03:28:07;21.50;99.90
42743;DHT22;28397;44.552;-0.848;2022-08-14T03:30:33;21.50;99.90
42743;DHT22;28397;44.552;-0.848;2022-08-14T03:33:00;21.50;99.90
42743;DHT22;28397;44.552;-0.848;2022-08-14T03:35:26;21.40;99.90
42743;DHT22;28397;44.552;-0.848;2022-08-14T03:37:52;21.50;99.90
42743;DHT22;28397;44.552;-0.848;2022-08-14T03:40:20;21.50;99.90
42743;DHT22;28397;44.552;-0.848;2022-08-14T03:42:47;21.50;99.90
42743;DHT22;28397;44.552;-0.848;2022-08-14T03:45:13;21.50;99.90
42743;DHT22;28397;44.552;-0.848;2022-08-14T03:47:41;21.50;99.90
42743;DHT22;28397;44.552;-0.848;2022-08-14T03:50:08;21.40;99.90
42743;DHT22;28397;44.552;-0.848;2022-08-14T03:52:36;21.50;99.90
42743;DHT22;28397;44.552;-0.848;2022-08-14T03:55:05;21.40;99.90
42743;DHT22;28397;44.552;-0.848;2022-08-14T03:57:33;21.40;99.90
42743;DHT22;28397;44.552;-0.848;2022-08-14T04:00:04;21.30;99.90
42743;DHT22;28397;44.552;-0.848;2022-08-14T04:02:33;21.30;99.90
42743;DHT22;28397;44.552;-0.848;2022-08-14T04:04:59;21.30;99.90
42743;DHT22;28397;44.552;-0.848;2022-08-14T04:07:26;21.30;99.90
42743;DHT22;28397;44.552;-0.848;2022-08-14T04:09:52;21.20;99.90
42743;DHT22;28397;44.552;-0.848;2022-08-14T04:12:18;21.10;99.90
42743;DHT22;28397;44.552;-0.848;2022-08-14T04:14:44;21.20;99.90
42743;DHT22;28397;44.552;-0.848;2022-08-14T04:17:10;21.10;99.90
42743;DHT22;28397;44.552;-0.848;2022-08-14T04:19:38;21.10;99.90
42743;DHT22;28397;44.552;-0.848;2022-08-14T04:22:04;21.10;99.90
42743;DHT22;28397;44.552;-0.848;2022-08-14T04:24:31;21.10;99.90
42743;DHT22;28397;44.552;-0.848;2022-08-14T04:26:57;21.10;99.90
42743;DHT22;28397;44.552;-0.848;2022-08-14T04:29:23;21.00;99.90
42743;DHT22;28397;44.552;-0.848;2022-08-14T04:31:48;20.90;99.90
42743;DHT22;28397;44.552;-0.848;2022-08-14T04:34:16;20.90;99.90
42743;DHT22;28397;44.552;-0.848;2022-08-14T04:36:41;20.90;99.90
42743;DHT22;28397;44.552;-0.848;2022-08-14T04:39:25;20.90;99.90
42743;DHT22;28397;44.552;-0.848;2022-08-14T04:42:10;20.90;99.90
42743;DHT22;28397;44.552;-0.848;2022-08-14T04:44:54;20.90;99.90
42743;DHT22;28397;44.552;-0.848;2022-08-14T04:47:19;21.00;99.90
42743;DHT22;28397;44.552;-0.848;2022-08-14T04:50:04;21.00;99.90
42743;DHT22;28397;44.552;-0.848;2022-08-14T04:52:30;20.90;99.90
42743;DHT22;28397;44.552;-0.848;2022-08-14T04:54:56;20.90;99.90
42743;DHT22;28397;44.552;-0.848;2022-08-14T04:57:22;20.90;99.90
42743;DHT22;28397;44.552;-0.848;2022-08-14T04:59:49;20.90;99.90
42743;DHT22;28397;44.552;-0.848;2022-08-14T05:02:17;20.90;99.90
42743;DHT22;28397;44.552;-0.848;2022-08-14T05:04:43;20.90;99.90
42743;DHT22;28397;44.552;-0.848;2022-08-14T05:07:08;20.90;99.90
42743;DHT22;28397;44.552;-0.848;2022-08-14T05:09:34;20.90;99.90
42743;DHT22;28397;44.552;-0.848;2022-08-14T05:12:00;20.90;99.90
42743;DHT22;28397;44.552;-0.848;2022-08-14T05:14:25;20.90;99.90
42743;DHT22;28397;44.552;-0.848;2022-08-14T05:16:52;20.90;99.90
42743;DHT22;28397;44.552;-0.848;2022-08-14T05:19:18;20.90;99.90
42743;DHT22;28397;44.552;-0.848;2022-08-14T05:21:43;20.80;99.90
42743;DHT22;28397;44.552;-0.848;2022-08-14T05:24:09;20.70;99.90
42743;DHT22;28397;44.552;-0.848;2022-08-14T05:26:37;20.70;99.90
42743;DHT22;28397;44.552;-0.848;2022-08-14T05:29:05;20.80;99.90
42743;DHT22;28397;44.552;-0.848;2022-08-14T05:31:34;20.80;99.90
42743;DHT22;28397;44.552;-0.848;2022-08-14T05:34:05;20.90;99.90
42743;DHT22;28397;44.552;-0.848;2022-08-14T05:36:32;20.80;99.90
42743;DHT22;28397;44.552;-0.848;2022-08-14T05:38:58;20.90;99.90
42743;DHT22;28397;44.552;-0.848;2022-08-14T05:41:23;20.80;99.90
42743;DHT22;28397;44.552;-0.848;2022-08-14T05:43:49;20.90;99.90
42743;DHT22;28397;44.552;-0.848;2022-08-14T05:46:17;20.90;99.90
42743;DHT22;28397;44.552;-0.848;2022-08-14T05:48:53;20.90;99.90
42743;DHT22;28397;44.552;-0.848;2022-08-14T05:51:21;20.90;99.90
42743;DHT22;28397;44.552;-0.848;2022-08-14T05:53:47;20.90;99.90
42743;DHT22;28397;44.552;-0.848;2022-08-14T05:56:13;21.00;99.90
42743;DHT22;28397;44.552;-0.848;2022-08-14T05:58:39;21.00;99.90
42743;DHT22;28397;44.552;-0.848;2022-08-14T06:01:05;20.90;99.90
42743;DHT22;28397;44.552;-0.848;2022-08-14T06:03:31;20.90;99.90
42743;DHT22;28397;44.552;-0.848;2022-08-14T06:05:57;21.00;99.90
42743;DHT22;28397;44.552;-0.848;2022-08-14T06:08:30;21.00;99.90
42743;DHT22;28397;44.552;-0.848;2022-08-14T06:10:59;21.00;99.90
42743;DHT22;28397;44.552;-0.848;2022-08-14T06:13:28;21.00;99.90
42743;DHT22;28397;44.552;-0.848;2022-08-14T06:15:54;21.00;99.90
42743;DHT22;28397;44.552;-0.848;2022-08-14T06:18:20;21.00;99.90
42743;DHT22;28397;44.552;-0.848;2022-08-14T06:20:46;21.00;99.90
42743;DHT22;28397;44.552;-0.848;2022-08-14T06:23:11;21.10;99.90
42743;DHT22;28397;44.552;-0.848;2022-08-14T06:25:37;21.10;99.90
42743;DHT22;28397;44.552;-0.848;2022-08-14T06:28:03;21.20;99.90
42743;DHT22;28397;44.552;-0.848;2022-08-14T06:30:32;21.20;99.90
42743;DHT22;28397;44.552;-0.848;2022-08-14T06:32:58;21.30;99.90
42743;DHT22;28397;44.552;-0.848;2022-08-14T06:35:23;21.30;99.90
42743;DHT22;28397;44.552;-0.848;2022-08-14T06:37:55;21.30;99.90
42743;DHT22;28397;44.552;-0.848;2022-08-14T06:40:30;21.30;99.90
42743;DHT22;28397;44.552;-0.848;2022-08-14T06:43:02;21.30;99.90
42743;DHT22;28397;44.552;-0.848;2022-08-14T06:45:28;21.30;99.90
42743;DHT22;28397;44.552;-0.848;2022-08-14T06:47:55;21.40;99.90
42743;DHT22;28397;44.552;-0.848;2022-08-14T06:50:22;21.30;99.90
42743;DHT22;28397;44.552;-0.848;2022-08-14T06:52:48;21.40;99.90
42743;DHT22;28397;44.552;-0.848;2022-08-14T06:55:16;21.30;99.90
42743;DHT22;28397;44.552;-0.848;2022-08-14T06:57:45;21.30;99.90
42743;DHT22;28397;44.552;-0.848;2022-08-14T07:00:19;21.30;99.90
42743;DHT22;28397;44.552;-0.848;2022-08-14T07:02:46;21.30;99.90
42743;DHT22;28397;44.552;-0.848;2022-08-14T07:05:31;21.30;99.90
42743;DHT22;28397;44.552;-0.848;2022-08-14T07:10:44;21.20;99.90
42743;DHT22;28397;44.552;-0.848;2022-08-14T07:13:11;21.20;99.90
42743;DHT22;28397;44.552;-0.848;2022-08-14T07:15:38;21.20;99.90
42743;DHT22;28397;44.552;-0.848;2022-08-14T07:18:04;21.20;99.90
42743;DHT22;28397;44.552;-0.848;2022-08-14T07:20:31;21.20;99.90
42743;DHT22;28397;44.552;-0.848;2022-08-14T07:22:57;21.20;99.90
42743;DHT22;28397;44.552;-0.848;2022-08-14T07:25:25;21.20;99.90
42743;DHT22;28397;44.552;-0.848;2022-08-14T07:27:52;21.20;99.90
42743;DHT22;28397;44.552;-0.848;2022-08-14T07:30:17;21.30;99.90
42743;DHT22;28397;44.552;-0.848;2022-08-14T07:32:43;21.30;99.90
42743;DHT22;28397;44.552;-0.848;2022-08-14T07:35:09;21.30;99.90
42743;DHT22;28397;44.552;-0.848;2022-08-14T07:37:35;21.30;99.90
42743;DHT22;28397;44.552;-0.848;2022-08-14T07:40:02;21.30;99.90
42743;DHT22;28397;44.552;-0.848;2022-08-14T07:42:28;21.30;99.90
42743;DHT22;28397;44.552;-0.848;2022-08-14T07:44:57;21.30;99.90
42743;DHT22;28397;44.552;-0.848;2022-08-14T07:47:23;21.30;99.90
42743;DHT22;28397;44.552;-0.848;2022-08-14T07:50:03;21.30;99.90
42743;DHT22;28397;44.552;-0.848;2022-08-14T07:52:32;21.30;99.90
42743;DHT22;28397;44.552;-0.848;2022-08-14T07:54:59;21.30;99.90
42743;DHT22;28397;44.552;-0.848;2022-08-14T07:57:25;21.40;99.90
42743;DHT22;28397;44.552;-0.848;2022-08-14T07:59:52;21.40;99.90
42743;DHT22;28397;44.552;-0.848;2022-08-14T08:02:18;21.50;99.90
42743;DHT22;28397;44.552;-0.848;2022-08-14T08:04:47;21.50;99.90
42743;DHT22;28397;44.552;-0.848;2022-08-14T08:07:13;21.50;99.90
42743;DHT22;28397;44.552;-0.848;2022-08-14T08:09:46;21.50;99.90
42743;DHT22;28397;44.552;-0.848;2022-08-14T08:12:14;21.60;99.90
42743;DHT22;28397;44.552;-0.848;2022-08-14T08:14:41;21.60;99.90
42743;DHT22;28397;44.552;-0.848;2022-08-14T08:17:09;21.80;99.90
42743;DHT22;28397;44.552;-0.848;2022-08-14T08:19:35;21.80;99.90
42743;DHT22;28397;44.552;-0.848;2022-08-14T08:22:03;21.90;99.90
42743;DHT22;28397;44.552;-0.848;2022-08-14T08:24:29;22.00;99.90
42743;DHT22;28397;44.552;-0.848;2022-08-14T08:26:55;22.00;99.90
42743;DHT22;28397;44.552;-0.848;2022-08-14T08:29:22;22.20;99.90
42743;DHT22;28397;44.552;-0.848;2022-08-14T08:31:50;22.20;99.90
42743;DHT22;28397;44.552;-0.848;2022-08-14T08:34:17;22.30;99.90
42743;DHT22;28397;44.552;-0.848;2022-08-14T08:36:43;22.30;99.90
42743;DHT22;28397;44.552;-0.848;2022-08-14T08:39:09;22.40;99.90
42743;DHT22;28397;44.552;-0.848;2022-08-14T08:41:44;22.50;99.90
42743;DHT22;28397;44.552;-0.848;2022-08-14T08:44:12;22.50;99.90
42743;DHT22;28397;44.552;-0.848;2022-08-14T08:46:38;22.60;99.90
42743;DHT22;28397;44.552;-0.848;2022-08-14T08:49:04;22.60;99.90
42743;DHT22;28397;44.552;-0.848;2022-08-14T08:51:33;22.70;99.90
42743;DHT22;28397;44.552;-0.848;2022-08-14T08:54:02;22.80;99.90
42743;DHT22;28397;44.552;-0.848;2022-08-14T08:56:46;22.90;99.90
42743;DHT22;28397;44.552;-0.848;2022-08-14T08:59:27;22.90;99.90
42743;DHT22;28397;44.552;-0.848;2022-08-14T09:01:58;23.00;99.90
42743;DHT22;28397;44.552;-0.848;2022-08-14T09:04:26;23.00;99.90
42743;DHT22;28397;44.552;-0.848;2022-08-14T09:06:53;23.10;99.90
42743;DHT22;28397;44.552;-0.848;2022-08-14T09:09:29;23.30;99.90
42743;DHT22;28397;44.552;-0.848;2022-08-14T09:11:57;23.40;99.90
42743;DHT22;28397;44.552;-0.848;2022-08-14T09:14:27;23.40;99.90
42743;DHT22;28397;44.552;-0.848;2022-08-14T09:16:57;23.50;99.90
42743;DHT22;28397;44.552;-0.848;2022-08-14T09:19:24;23.50;99.90
42743;DHT22;28397;44.552;-0.848;2022-08-14T09:21:50;23.50;99.90
42743;DHT22;28397;44.552;-0.848;2022-08-14T09:24:18;23.70;99.90
42743;DHT22;28397;44.552;-0.848;2022-08-14T09:26:44;23.90;99.90
42743;DHT22;28397;44.552;-0.848;2022-08-14T09:29:11;24.00;99.90
42743;DHT22;28397;44.552;-0.848;2022-08-14T09:31:39;24.10;99.90
42743;DHT22;28397;44.552;-0.848;2022-08-14T09:45:15;24.70;99.90
42743;DHT22;28397;44.552;-0.848;2022-08-14T09:47:50;24.70;99.90
42743;DHT22;28397;44.552;-0.848;2022-08-14T09:50:25;24.70;99.90
42743;DHT22;28397;44.552;-0.848;2022-08-14T09:52:59;24.60;99.90
42743;DHT22;28397;44.552;-0.848;2022-08-14T09:55:26;24.40;99.90
42743;DHT22;28397;44.552;-0.848;2022-08-14T10:00:54;24.40;99.90
42743;DHT22;28397;44.552;-0.848;2022-08-14T10:03:26;24.30;99.90
42743;DHT22;28397;44.552;-0.848;2022-08-14T10:06:10;24.30;99.90
42743;DHT22;28397;44.552;-0.848;2022-08-14T10:08:48;24.30;99.90
42743;DHT22;28397;44.552;-0.848;2022-08-14T10:11:16;24.30;99.90
42743;DHT22;28397;44.552;-0.848;2022-08-14T10:13:42;24.30;99.90
42743;DHT22;28397;44.552;-0.848;2022-08-14T10:16:08;24.20;99.90
42743;DHT22;28397;44.552;-0.848;2022-08-14T10:18:34;24.20;99.90
42743;DHT22;28397;44.552;-0.848;2022-08-14T10:21:00;24.20;99.90
42743;DHT22;28397;44.552;-0.848;2022-08-14T10:23:41;24.20;99.90
42743;DHT22;28397;44.552;-0.848;2022-08-14T10:26:12;24.20;99.90
42743;DHT22;28397;44.552;-0.848;2022-08-14T10:28:47;24.20;99.90
42743;DHT22;28397;44.552;-0.848;2022-08-14T10:33:43;24.20;99.90
42743;DHT22;28397;44.552;-0.848;2022-08-14T10:36:11;24.20;99.90
42743;DHT22;28397;44.552;-0.848;2022-08-14T10:38:37;24.20;99.90
42743;DHT22;28397;44.552;-0.848;2022-08-14T10:43:37;24.20;99.90
42743;DHT22;28397;44.552;-0.848;2022-08-14T10:46:14;24.20;99.90
42743;DHT22;28397;44.552;-0.848;2022-08-14T10:48:40;24.20;99.90
42743;DHT22;28397;44.552;-0.848;2022-08-14T10:51:07;24.10;99.90
42743;DHT22;28397;44.552;-0.848;2022-08-14T10:53:34;24.20;99.90
42743;DHT22;28397;44.552;-0.848;2022-08-14T10:56:09;24.30;99.90
42743;DHT22;28397;44.552;-0.848;2022-08-14T10:58:35;24.30;99.90
42743;DHT22;28397;44.552;-0.848;2022-08-14T11:01:01;24.30;99.90
42743;DHT22;28397;44.552;-0.848;2022-08-14T11:03:42;24.30;99.90
42743;DHT22;28397;44.552;-0.848;2022-08-14T11:06:16;24.20;99.90
42743;DHT22;28397;44.552;-0.848;2022-08-14T11:08:45;24.20;99.90
42743;DHT22;28397;44.552;-0.848;2022-08-14T11:11:12;24.20;99.90
42743;DHT22;28397;44.552;-0.848;2022-08-14T11:13:40;24.10;99.90
42743;DHT22;28397;44.552;-0.848;2022-08-14T11:16:09;24.10;99.90
42743;DHT22;28397;44.552;-0.848;2022-08-14T11:18:36;24.10;99.90
42743;DHT22;28397;44.552;-0.848;2022-08-14T11:21:03;24.10;99.90
42743;DHT22;28397;44.552;-0.848;2022-08-14T11:23:34;24.20;99.90
42743;DHT22;28397;44.552;-0.848;2022-08-14T11:26:01;24.30;99.90
42743;DHT22;28397;44.552;-0.848;2022-08-14T11:28:32;24.30;99.90
42743;DHT22;28397;44.552;-0.848;2022-08-14T11:30:59;24.30;99.90
42743;DHT22;28397;44.552;-0.848;2022-08-14T11:33:28;24.30;99.90
42743;DHT22;28397;44.552;-0.848;2022-08-14T11:36:02;24.30;99.90
42743;DHT22;28397;44.552;-0.848;2022-08-14T11:38:44;24.40;99.90
42743;DHT22;28397;44.552;-0.848;2022-08-14T11:41:11;24.40;99.90
42743;DHT22;28397;44.552;-0.848;2022-08-14T11:43:48;24.30;99.90
42743;DHT22;28397;44.552;-0.848;2022-08-14T11:46:15;24.40;99.90
42743;DHT22;28397;44.552;-0.848;2022-08-14T11:51:20;24.40;99.90
42743;DHT22;28397;44.552;-0.848;2022-08-14T11:53:52;24.40;99.90
42743;DHT22;28397;44.552;-0.848;2022-08-14T11:56:18;24.40;99.90
42743;DHT22;28397;44.552;-0.848;2022-08-14T11:58:49;24.30;99.90
42743;DHT22;28397;44.552;-0.848;2022-08-14T12:01:15;24.20;99.90
42743;DHT22;28397;44.552;-0.848;2022-08-14T12:03:43;24.10;99.90
42743;DHT22;28397;44.552;-0.848;2022-08-14T12:06:15;24.10;99.90
42743;DHT22;28397;44.552;-0.848;2022-08-14T12:08:41;24.00;99.90
42743;DHT22;28397;44.552;-0.848;2022-08-14T12:11:13;24.10;99.90
42743;DHT22;28397;44.552;-0.848;2022-08-14T12:13:40;24.10;99.90
42743;DHT22;28397;44.552;-0.848;2022-08-14T12:16:08;24.20;99.90
42743;DHT22;28397;44.552;-0.848;2022-08-14T12:18:38;24.20;99.90
42743;DHT22;28397;44.552;-0.848;2022-08-14T12:21:16;24.30;99.90
42743;DHT22;28397;44.552;-0.848;2022-08-14T12:23:44;24.40;99.90
42743;DHT22;28397;44.552;-0.848;2022-08-14T12:26:17;24.50;99.90
42743;DHT22;28397;44.552;-0.848;2022-08-14T12:28:48;24.60;99.90
42743;DHT22;28397;44.552;-0.848;2022-08-14T12:31:19;24.60;99.90
42743;DHT22;28397;44.552;-0.848;2022-08-14T12:33:59;24.70;99.90
42743;DHT22;28397;44.552;-0.848;2022-08-14T12:36:26;24.90;99.90
42743;DHT22;28397;44.552;-0.848;2022-08-14T12:38:59;24.90;99.90
42743;DHT22;28397;44.552;-0.848;2022-08-14T12:41:28;25.00;99.90
42743;DHT22;28397;44.552;-0.848;2022-08-14T12:44:05;25.20;99.90
42743;DHT22;28397;44.552;-0.848;2022-08-14T12:46:38;25.30;99.90
42743;DHT22;28397;44.552;-0.848;2022-08-14T12:49:13;25.30;99.90
42743;DHT22;28397;44.552;-0.848;2022-08-14T12:51:39;25.40;99.90
42743;DHT22;28397;44.552;-0.848;2022-08-14T12:54:17;25.50;99.90
42743;DHT22;28397;44.552;-0.848;2022-08-14T12:56:44;25.60;99.90
42743;DHT22;28397;44.552;-0.848;2022-08-14T12:59:11;25.60;99.90
42743;DHT22;28397;44.552;-0.848;2022-08-14T13:01:37;25.70;99.90
42743;DHT22;28397;44.552;-0.848;2022-08-14T13:04:11;25.80;99.90
42743;DHT22;28397;44.552;-0.848;2022-08-14T13:06:42;25.90;99.90
42743;DHT22;28397;44.552;-0.848;2022-08-14T13:09:10;26.00;99.90
42743;DHT22;28397;44.552;-0.848;2022-08-14T13:11:45;26.10;99.90
42743;DHT22;28397;44.552;-0.848;2022-08-14T13:14:21;26.10;99.90
42743;DHT22;28397;44.552;-0.848;2022-08-14T13:16:54;26.10;99.90
42743;DHT22;28397;44.552;-0.848;2022-08-14T13:19:22;26.10;99.90
42743;DHT22;28397;44.552;-0.848;2022-08-14T13:21:49;26.10;99.90
42743;DHT22;28397;44.552;-0.848;2022-08-14T13:24:18;26.00;99.90
42743;DHT22;28397;44.552;-0.848;2022-08-14T13:26:46;25.90;99.90
42743;DHT22;28397;44.552;-0.848;2022-08-14T13:29:14;25.80;99.90
42743;DHT22;28397;44.552;-0.848;2022-08-14T13:31:43;25.80;99.90
42743;DHT22;28397;44.552;-0.848;2022-08-14T13:34:12;25.80;99.90
42743;DHT22;28397;44.552;-0.848;2022-08-14T13:36:38;25.90;99.90
42743;DHT22;28397;44.552;-0.848;2022-08-14T13:39:05;26.00;99.90
42743;DHT22;28397;44.552;-0.848;2022-08-14T13:41:32;26.00;99.90
42743;DHT22;28397;44.552;-0.848;2022-08-14T13:43:58;26.20;99.90
42743;DHT22;28397;44.552;-0.848;2022-08-14T13:46:25;26.20;99.90
42743;DHT22;28397;44.552;-0.848;2022-08-14T13:48:51;26.20;99.90
42743;DHT22;28397;44.552;-0.848;2022-08-14T13:51:17;26.20;99.90
42743;DHT22;28397;44.552;-0.848;2022-08-14T13:53:47;26.30;99.90
42743;DHT22;28397;44.552;-0.848;2022-08-14T13:56:14;26.40;99.90
42743;DHT22;28397;44.552;-0.848;2022-08-14T13:58:43;26.40;99.90
42743;DHT22;28397;44.552;-0.848;2022-08-14T14:01:20;26.50;99.90
42743;DHT22;28397;44.552;-0.848;2022-08-14T14:03:48;26.50;99.90
42743;DHT22;28397;44.552;-0.848;2022-08-14T14:06:17;26.70;99.90
42743;DHT22;28397;44.552;-0.848;2022-08-14T14:08:48;26.80;99.90
42743;DHT22;28397;44.552;-0.848;2022-08-14T14:11:16;26.80;99.90
42743;DHT22;28397;44.552;-0.848;2022-08-14T14:13:57;26.70;99.90
42743;DHT22;28397;44.552;-0.848;2022-08-14T14:16:26;26.60;99.90
42743;DHT22;28397;44.552;-0.848;2022-08-14T14:18:54;26.60;99.90
42743;DHT22;28397;44.552;-0.848;2022-08-14T14:21:24;26.60;99.90
42743;DHT22;28397;44.552;-0.848;2022-08-14T14:23:53;26.40;99.90
42743;DHT22;28397;44.552;-0.848;2022-08-14T14:26:20;26.40;99.90
42743;DHT22;28397;44.552;-0.848;2022-08-14T14:28:50;26.40;99.90
42743;DHT22;28397;44.552;-0.848;2022-08-14T14:31:21;26.20;99.90
42743;DHT22;28397;44.552;-0.848;2022-08-14T14:33:51;26.10;99.90
42743;DHT22;28397;44.552;-0.848;2022-08-14T14:36:22;26.30;99.90
42743;DHT22;28397;44.552;-0.848;2022-08-14T14:39:05;26.50;99.90
42743;DHT22;28397;44.552;-0.848;2022-08-14T14:41:41;26.50;99.90
42743;DHT22;28397;44.552;-0.848;2022-08-14T14:44:08;26.50;99.90
42743;DHT22;28397;44.552;-0.848;2022-08-14T14:46:37;26.50;99.90
42743;DHT22;28397;44.552;-0.848;2022-08-14T14:49:06;26.40;99.90
42743;DHT22;28397;44.552;-0.848;2022-08-14T14:51:33;26.40;99.90
42743;DHT22;28397;44.552;-0.848;2022-08-14T14:53:59;26.50;99.90
42743;DHT22;28397;44.552;-0.848;2022-08-14T14:56:28;26.60;99.90
42743;DHT22;28397;44.552;-0.848;2022-08-14T14:58:56;26.60;99.90
42743;DHT22;28397;44.552;-0.848;2022-08-14T15:01:22;26.60;99.90
42743;DHT22;28397;44.552;-0.848;2022-08-14T15:03:49;26.60;99.90
42743;DHT22;28397;44.552;-0.848;2022-08-14T15:06:19;26.50;99.90
42743;DHT22;28397;44.552;-0.848;2022-08-14T15:08:45;26.60;99.90
42743;DHT22;28397;44.552;-0.848;2022-08-14T15:11:11;26.60;99.90
42743;DHT22;28397;44.552;-0.848;2022-08-14T15:13:37;26.60;99.90
42743;DHT22;28397;44.552;-0.848;2022-08-14T15:16:04;26.60;99.90
42743;DHT22;28397;44.552;-0.848;2022-08-14T15:18:30;26.50;99.90
42743;DHT22;28397;44.552;-0.848;2022-08-14T15:20:57;26.40;99.90
42743;DHT22;28397;44.552;-0.848;2022-08-14T15:23:25;26.50;99.90
42743;DHT22;28397;44.552;-0.848;2022-08-14T15:25:51;26.40;99.90
42743;DHT22;28397;44.552;-0.848;2022-08-14T15:28:17;26.30;99.90
42743;DHT22;28397;44.552;-0.848;2022-08-14T15:30:45;26.30;99.90
42743;DHT22;28397;44.552;-0.848;2022-08-14T15:33:11;26.20;99.90
42743;DHT22;28397;44.552;-0.848;2022-08-14T15:35:38;26.30;99.90
42743;DHT22;28397;44.552;-0.848;2022-08-14T15:38:04;26.40;99.90
42743;DHT22;28397;44.552;-0.848;2022-08-14T15:40:39;26.40;99.90
42743;DHT22;28397;44.552;-0.848;2022-08-14T15:43:09;26.30;99.90
42743;DHT22;28397;44.552;-0.848;2022-08-14T15:45:41;26.40;99.90
42743;DHT22;28397;44.552;-0.848;2022-08-14T15:48:08;26.50;99.90